createdAt,value
2017-08-18T00:01:21.623Z,22.53
2017-08-18T00:03:49.035Z,22.47
2017-08-18T00:06:16.430Z,22.51
2017-08-18T00:08:43.856Z,22.48
2017-08-18T00:11:11.248Z,22.37
2017-08-18T00:13:38.660Z,22.31
2017-08-18T00:16:06.067Z,22.39
2017-08-18T00:18:33.470Z,22.29
2017-08-18T00:21:00.893Z,22.24
2017-08-18T00:23:28.283Z,22.16
2017-08-18T00:25:55.682Z,22.12
2017-08-18T00:28:23.082Z,22.10
2017-08-18T00:30:50.491Z,22.04
2017-08-18T00:33:17.915Z,21.97
2017-08-18T00:35:45.314Z,21.87
2017-08-18T00:38:12.936Z,21.78
2017-08-18T00:40:40.336Z,21.84
2017-08-18T00:43:07.735Z,21.83
2017-08-18T00:45:35.135Z,21.88
2017-08-18T00:48:02.535Z,21.93
2017-08-18T00:50:29.934Z,21.84
2017-08-18T00:52:57.343Z,21.82
2017-08-18T00:55:24.742Z,21.81
2017-08-18T00:57:52.147Z,21.74
2017-08-18T01:00:19.547Z,21.71
2017-08-18T01:02:46.947Z,21.66
2017-08-18T01:05:14.355Z,21.63
2017-08-18T01:07:41.746Z,21.58
2017-08-18T01:10:09.147Z,21.54
2017-08-18T01:12:36.539Z,21.52
2017-08-18T01:15:03.958Z,21.55
2017-08-18T01:17:31.350Z,21.45
2017-08-18T01:19:58.754Z,21.55
2017-08-18T01:22:26.161Z,21.53
2017-08-18T01:24:53.591Z,21.48
2017-08-18T01:27:20.995Z,21.54
2017-08-18T01:29:48.403Z,21.68
2017-08-18T01:32:16.026Z,21.64
2017-08-18T01:34:43.426Z,21.60
2017-08-18T01:37:11.038Z,21.61
2017-08-18T01:39:38.439Z,21.70
2017-08-18T01:42:05.842Z,21.70
2017-08-18T01:44:33.452Z,21.69
2017-08-18T01:47:00.854Z,21.79
2017-08-18T01:49:28.252Z,21.87
2017-08-18T01:51:55.867Z,21.89
2017-08-18T01:54:23.268Z,21.87
2017-08-18T01:56:50.667Z,21.74
2017-08-18T01:59:18.062Z,21.81
2017-08-18T02:01:45.462Z,21.79
2017-08-18T02:04:12.863Z,21.80
2017-08-18T02:06:40.260Z,21.81
2017-08-18T02:09:07.656Z,21.79
2017-08-18T02:11:35.066Z,21.86
2017-08-18T02:14:02.463Z,21.83
2017-08-18T02:16:29.879Z,21.76
2017-08-18T02:18:57.294Z,21.74
2017-08-18T02:21:24.694Z,21.59
2017-08-18T02:23:52.111Z,21.55
2017-08-18T02:26:19.570Z,21.59
2017-08-18T02:28:46.948Z,21.57
2017-08-18T02:31:15.674Z,21.52
2017-08-18T02:33:43.084Z,21.53
2017-08-18T02:36:10.483Z,21.38
2017-08-18T02:38:37.887Z,21.37
2017-08-18T02:41:05.491Z,21.45
2017-08-18T02:43:32.900Z,21.52
2017-08-18T02:46:00.295Z,21.52
2017-08-18T02:48:27.698Z,21.54
2017-08-18T02:50:55.097Z,21.42
2017-08-18T02:53:22.499Z,21.43
2017-08-18T02:55:49.903Z,21.28
2017-08-18T02:58:17.332Z,21.31
2017-08-18T03:00:44.739Z,21.20
2017-08-18T03:03:12.151Z,21.18
2017-08-18T03:05:39.768Z,21.32
2017-08-18T03:08:07.162Z,21.36
2017-08-18T03:10:34.563Z,21.38
2017-08-18T03:13:02.141Z,21.48
2017-08-18T03:15:29.540Z,21.62
2017-08-18T03:17:57.142Z,21.61
2017-08-18T03:20:24.768Z,21.66
2017-08-18T03:22:52.213Z,21.62
2017-08-18T03:25:19.612Z,21.49
2017-08-18T03:27:47.022Z,21.51
2017-08-18T03:30:14.424Z,21.50
2017-08-18T03:32:42.026Z,21.33
2017-08-18T03:35:09.431Z,21.27
2017-08-18T03:37:37.047Z,21.33
2017-08-18T03:40:04.451Z,21.25
2017-08-18T03:42:31.846Z,21.20
2017-08-18T03:44:59.246Z,21.29
2017-08-18T03:47:26.639Z,21.27
2017-08-18T03:49:54.039Z,21.23
2017-08-18T03:52:21.659Z,21.11
2017-08-18T03:54:49.057Z,21.21
2017-08-18T03:57:16.459Z,21.12
2017-08-18T03:59:43.851Z,21.04
2017-08-18T04:02:11.254Z,21.00
2017-08-18T04:04:38.654Z,21.06
2017-08-18T04:07:06.070Z,21.00
2017-08-18T04:09:33.473Z,21.00
2017-08-18T04:12:00.876Z,20.91
2017-08-18T04:14:28.270Z,20.94
2017-08-18T04:16:55.666Z,20.81
2017-08-18T04:19:23.071Z,20.80
2017-08-18T04:21:50.474Z,20.63
2017-08-18T04:24:17.883Z,20.64
2017-08-18T04:26:45.291Z,20.71
2017-08-18T04:29:12.682Z,20.82
2017-08-18T04:31:40.087Z,20.89
2017-08-18T04:34:07.479Z,20.87
2017-08-18T04:36:34.893Z,20.97
2017-08-18T04:39:02.287Z,21.04
2017-08-18T04:41:29.680Z,20.96
2017-08-18T04:43:57.079Z,21.02
2017-08-18T04:46:25.379Z,20.97
2017-08-18T04:48:52.783Z,21.03
2017-08-18T04:51:20.166Z,21.01
2017-08-18T04:53:47.563Z,21.00
2017-08-18T04:56:14.967Z,21.14
2017-08-18T04:58:42.368Z,21.21
2017-08-18T05:01:09.761Z,21.25
2017-08-18T05:03:37.161Z,21.10
2017-08-18T05:06:04.552Z,20.98
2017-08-18T05:08:31.959Z,20.93
2017-08-18T05:10:59.570Z,20.79
2017-08-18T05:13:26.971Z,20.82
2017-08-18T05:15:54.362Z,21.01
2017-08-18T05:18:21.765Z,21.10
2017-08-18T05:20:49.150Z,21.09
2017-08-18T05:23:16.538Z,21.12
2017-08-18T05:25:43.932Z,21.14
2017-08-18T05:28:11.332Z,21.21
2017-08-18T05:30:38.726Z,20.94
2017-08-18T05:33:06.367Z,21.07
2017-08-18T05:35:34.030Z,21.21
2017-08-18T05:38:01.420Z,21.23
2017-08-18T05:40:28.814Z,21.31
2017-08-18T05:42:56.207Z,21.27
2017-08-18T05:45:23.854Z,21.36
2017-08-18T05:47:51.239Z,21.42
2017-08-18T05:50:18.639Z,21.48
2017-08-18T05:52:46.028Z,21.30
2017-08-18T05:55:13.435Z,21.29
2017-08-18T05:57:40.831Z,21.32
2017-08-18T06:00:08.227Z,21.38
2017-08-18T06:02:35.614Z,21.24
2017-08-18T06:05:03.018Z,21.16
2017-08-18T06:07:30.410Z,21.18
2017-08-18T06:09:57.817Z,21.16
2017-08-18T06:12:25.206Z,21.28
2017-08-18T06:14:52.619Z,21.31
2017-08-18T06:17:20.008Z,21.43
2017-08-18T06:19:47.432Z,21.54
2017-08-18T06:22:14.827Z,21.50
2017-08-18T06:24:42.227Z,21.59
2017-08-18T06:27:09.615Z,21.61
2017-08-18T06:29:37.017Z,21.58
2017-08-18T06:32:04.405Z,21.68
2017-08-18T06:34:31.790Z,21.80
2017-08-18T06:36:59.186Z,21.67
2017-08-18T06:39:26.599Z,21.75
2017-08-18T06:41:53.989Z,21.76
2017-08-18T06:44:22.101Z,21.86
2017-08-18T06:46:49.513Z,21.94
2017-08-18T06:49:16.915Z,22.03
2017-08-18T06:51:44.298Z,22.06
2017-08-18T06:54:11.686Z,21.99
2017-08-18T06:56:39.091Z,22.06
2017-08-18T06:59:06.475Z,22.08
2017-08-18T07:01:33.877Z,22.13
2017-08-18T07:04:01.262Z,22.12
2017-08-18T07:06:28.655Z,22.06
2017-08-18T07:08:56.041Z,22.06
2017-08-18T07:11:23.436Z,22.11
2017-08-18T07:13:50.855Z,22.14
2017-08-18T07:16:18.234Z,22.13
2017-08-18T07:18:45.874Z,22.17
2017-08-18T07:21:13.281Z,22.24
2017-08-18T07:23:40.670Z,22.21
2017-08-18T07:26:08.064Z,22.20
2017-08-18T07:28:35.473Z,22.29
2017-08-18T07:31:02.858Z,22.23
2017-08-18T07:33:30.261Z,22.21
2017-08-18T07:35:57.638Z,22.24
2017-08-18T07:38:25.326Z,22.29
2017-08-18T07:40:52.715Z,22.32
2017-08-18T07:43:20.123Z,22.34
2017-08-18T07:45:47.514Z,22.37
2017-08-18T07:48:14.907Z,22.44
2017-08-18T07:50:42.303Z,22.42
2017-08-18T07:53:09.695Z,22.46
2017-08-18T07:55:37.112Z,22.51
2017-08-18T07:58:04.495Z,22.41
2017-08-18T08:00:31.886Z,22.28
2017-08-18T08:02:59.283Z,22.42
2017-08-18T08:05:26.694Z,22.46
2017-08-18T08:07:54.083Z,22.48
2017-08-18T08:10:21.466Z,22.53
2017-08-18T08:12:48.866Z,22.59
2017-08-18T08:15:16.267Z,22.60
2017-08-18T08:17:43.659Z,22.53
2017-08-18T08:20:11.054Z,22.55
2017-08-18T08:22:38.442Z,22.62
2017-08-18T08:25:05.828Z,22.44
2017-08-18T08:27:33.230Z,22.47
2017-08-18T08:30:00.622Z,22.45
2017-08-18T08:32:28.014Z,22.46
2017-08-18T08:34:55.398Z,22.39
2017-08-18T08:37:22.794Z,22.42
2017-08-18T08:39:50.191Z,22.40
2017-08-18T08:42:17.592Z,22.45
2017-08-18T08:44:44.982Z,22.48
2017-08-18T08:47:12.387Z,22.43
2017-08-18T08:49:39.771Z,22.42
2017-08-18T08:52:07.170Z,22.36
2017-08-18T08:54:34.560Z,22.37
2017-08-18T08:57:01.971Z,22.36
2017-08-18T08:59:29.370Z,22.44
2017-08-18T09:01:56.754Z,22.49
2017-08-18T09:04:24.155Z,22.39
2017-08-18T09:06:51.548Z,22.47
2017-08-18T09:09:18.951Z,22.49
2017-08-18T09:11:46.342Z,22.50
2017-08-18T09:14:13.738Z,22.47
2017-08-18T09:16:41.126Z,22.42
2017-08-18T09:19:08.523Z,22.49
2017-08-18T09:21:35.915Z,22.48
2017-08-18T09:24:03.526Z,22.47
2017-08-18T09:26:30.916Z,22.40
2017-08-18T09:28:58.314Z,22.39
2017-08-18T09:31:25.705Z,22.41
2017-08-18T09:33:53.111Z,22.55
2017-08-18T09:36:20.504Z,22.63
2017-08-18T09:38:48.149Z,22.64
2017-08-18T09:41:15.534Z,22.65
2017-08-18T09:43:42.934Z,22.70
2017-08-18T09:46:10.326Z,22.58
2017-08-18T09:48:49.562Z,22.56
2017-08-18T09:51:28.559Z,22.63
2017-08-18T09:57:16.359Z,22.54
2017-08-18T09:59:43.767Z,22.48
2017-08-18T10:02:11.154Z,22.58
2017-08-18T10:04:38.553Z,22.54
2017-08-18T10:07:06.634Z,22.55
2017-08-18T10:09:34.279Z,22.64
2017-08-18T10:12:01.670Z,22.65
2017-08-18T10:14:29.055Z,22.69
2017-08-18T10:16:56.451Z,22.62
2017-08-18T10:19:23.834Z,22.56
2017-08-18T10:21:51.251Z,22.45
2017-08-18T10:24:18.642Z,22.44
2017-08-18T10:26:46.039Z,22.33
2017-08-18T10:29:13.424Z,22.40
2017-08-18T10:31:40.819Z,22.45
2017-08-18T10:34:08.227Z,22.52
2017-08-18T10:36:35.625Z,22.54
2017-08-18T10:39:03.003Z,22.53
2017-08-18T10:41:30.390Z,22.64
2017-08-18T10:43:57.806Z,22.64
2017-08-18T10:46:25.184Z,22.37
2017-08-18T10:48:52.566Z,22.18
2017-08-18T10:51:19.958Z,22.08
2017-08-18T10:53:47.347Z,22.02
2017-08-18T10:56:14.752Z,22.11
2017-08-18T10:58:42.157Z,22.07
2017-08-18T11:01:09.551Z,22.18
2017-08-18T11:03:36.943Z,22.35
2017-08-18T11:06:04.339Z,22.42
2017-08-18T11:08:31.736Z,22.58
2017-08-18T11:10:59.147Z,22.58
2017-08-18T11:13:26.538Z,22.42
2017-08-18T11:15:53.927Z,22.38
2017-08-18T11:18:21.338Z,22.47
2017-08-18T11:20:48.727Z,22.62
2017-08-18T11:23:16.122Z,22.66
2017-08-18T11:25:43.515Z,22.74
2017-08-18T11:28:10.906Z,22.79
2017-08-18T11:30:38.307Z,22.82
2017-08-18T11:33:05.722Z,22.61
2017-08-18T11:35:33.138Z,22.65
2017-08-18T11:38:00.535Z,22.73
2017-08-18T11:40:27.927Z,22.79
2017-08-18T11:42:55.333Z,22.85
2017-08-18T11:45:22.746Z,22.88
2017-08-18T11:47:50.178Z,22.94
2017-08-18T11:50:17.559Z,23.02
2017-08-18T11:52:44.943Z,22.65
2017-08-18T11:55:12.336Z,22.62
2017-08-18T11:57:39.726Z,22.68
2017-08-18T12:00:07.119Z,22.73
2017-08-18T12:02:34.511Z,22.73
2017-08-18T12:05:01.906Z,22.85
2017-08-18T12:07:29.508Z,22.94
2017-08-18T12:09:56.899Z,22.86
2017-08-18T12:12:24.305Z,22.76
2017-08-18T12:14:51.692Z,22.81
2017-08-18T12:17:19.079Z,22.89
2017-08-18T12:19:46.487Z,22.90
2017-08-18T12:22:13.877Z,22.86
2017-08-18T12:24:41.263Z,22.82
2017-08-18T12:27:08.654Z,22.71
2017-08-18T12:29:36.058Z,22.81
2017-08-18T12:32:03.455Z,22.94
2017-08-18T12:34:30.843Z,22.96
2017-08-18T12:36:58.238Z,22.95
2017-08-18T12:39:25.628Z,22.94
2017-08-18T12:41:53.039Z,23.07
2017-08-18T12:44:20.411Z,23.04
2017-08-18T12:46:47.808Z,23.19
2017-08-18T12:49:15.195Z,23.12
2017-08-18T12:51:42.591Z,23.10
2017-08-18T12:54:09.980Z,23.11
2017-08-18T12:56:37.381Z,23.20
2017-08-18T12:59:04.775Z,23.25
2017-08-18T13:01:32.166Z,23.31
2017-08-18T13:03:59.550Z,23.42
2017-08-18T13:06:26.955Z,23.48
2017-08-18T13:08:54.347Z,23.53
2017-08-18T13:11:22.021Z,23.60
2017-08-18T13:13:49.407Z,23.68
2017-08-18T13:16:16.815Z,23.72
2017-08-18T13:18:44.202Z,23.64
2017-08-18T13:21:11.612Z,23.43
2017-08-18T13:23:38.986Z,23.43
2017-08-18T13:26:06.415Z,23.47
2017-08-18T13:28:33.800Z,23.57
2017-08-18T13:31:01.202Z,23.63
2017-08-18T13:33:28.579Z,23.63
2017-08-18T13:35:55.963Z,23.52
2017-08-18T13:38:23.355Z,23.46
2017-08-18T13:40:50.750Z,23.56
2017-08-18T13:43:18.154Z,23.65
2017-08-18T13:45:45.534Z,23.76
2017-08-18T13:48:12.937Z,23.71
2017-08-18T13:50:40.331Z,23.64
2017-08-18T13:53:07.719Z,23.70
2017-08-18T13:55:35.103Z,23.78
2017-08-18T13:58:02.494Z,23.79
2017-08-18T14:00:29.883Z,23.88
2017-08-18T14:02:57.288Z,23.98
2017-08-18T14:05:24.683Z,23.98
2017-08-18T14:07:52.303Z,23.99
2017-08-18T14:10:19.701Z,24.01
2017-08-18T14:12:47.114Z,24.09
2017-08-18T14:15:14.496Z,24.14
2017-08-18T14:17:41.883Z,24.08
2017-08-18T14:20:09.270Z,24.12
2017-08-18T14:22:36.660Z,24.15
2017-08-18T14:25:09.743Z,24.17
2017-08-18T14:27:42.646Z,24.05
2017-08-18T14:30:10.042Z,24.01
2017-08-18T14:32:37.436Z,24.09
2017-08-18T14:35:04.818Z,24.03
2017-08-18T14:37:32.218Z,23.84
2017-08-18T14:39:59.606Z,23.84
2017-08-18T14:42:26.995Z,23.81
2017-08-18T14:44:54.382Z,23.83
2017-08-18T14:47:21.768Z,23.83
2017-08-18T14:49:49.163Z,23.96
2017-08-18T14:52:16.772Z,24.03
2017-08-18T14:54:44.168Z,24.01
2017-08-18T14:57:11.563Z,23.99
2017-08-18T14:59:38.968Z,24.03
2017-08-18T15:02:06.363Z,23.99
2017-08-18T15:04:33.764Z,23.97
2017-08-18T15:07:01.152Z,24.04
2017-08-18T15:09:28.551Z,24.00
2017-08-18T15:11:55.942Z,24.03
2017-08-18T15:14:23.339Z,24.00
2017-08-18T15:16:50.750Z,24.02
2017-08-18T15:19:18.134Z,24.10
2017-08-18T15:21:45.535Z,24.11
2017-08-18T15:24:12.935Z,24.17
2017-08-18T15:26:40.314Z,24.21
2017-08-18T15:29:07.703Z,24.16
2017-08-18T15:31:35.101Z,24.13
2017-08-18T15:34:02.499Z,24.13
2017-08-18T15:36:29.894Z,24.15
2017-08-18T15:38:57.298Z,24.17
2017-08-18T15:41:24.968Z,24.19
2017-08-18T15:43:52.349Z,24.15
2017-08-18T15:46:19.742Z,24.13
2017-08-18T15:48:47.131Z,24.10
2017-08-18T15:51:14.788Z,24.10
2017-08-18T15:53:42.175Z,24.12
2017-08-18T15:56:09.562Z,24.03
2017-08-18T15:58:36.959Z,24.06
2017-08-18T16:01:04.346Z,24.03
2017-08-18T16:03:31.738Z,24.07
2017-08-18T16:05:59.124Z,24.01
2017-08-18T16:08:26.514Z,24.00
2017-08-18T16:10:53.912Z,23.95
2017-08-18T16:13:21.307Z,23.95
2017-08-18T16:15:48.683Z,23.96
2017-08-18T16:18:16.086Z,23.96
2017-08-18T16:20:43.484Z,23.98
2017-08-18T16:23:10.879Z,23.93
2017-08-18T16:25:38.267Z,23.92
2017-08-18T16:28:05.658Z,23.88
2017-08-18T16:30:33.072Z,23.90
2017-08-18T16:33:00.476Z,24.03
2017-08-18T16:35:27.872Z,23.96
2017-08-18T16:37:55.278Z,24.01
2017-08-18T16:40:22.876Z,24.04
2017-08-18T16:42:50.279Z,24.05
2017-08-18T16:45:17.674Z,24.01
2017-08-18T16:47:45.066Z,24.08
2017-08-18T16:50:12.464Z,24.07
2017-08-18T16:52:39.847Z,24.06
2017-08-18T16:55:07.243Z,24.06
2017-08-18T16:57:34.722Z,24.05
2017-08-18T17:00:02.108Z,24.12
2017-08-18T17:02:29.494Z,24.13
2017-08-18T17:04:56.893Z,24.09
2017-08-18T17:07:24.275Z,24.02
2017-08-18T17:09:51.681Z,23.95
2017-08-18T17:12:19.078Z,23.81
2017-08-18T17:14:46.477Z,23.80
2017-08-18T17:17:13.870Z,23.74
2017-08-18T17:19:41.267Z,23.70
2017-08-18T17:22:08.662Z,23.71
2017-08-18T17:24:36.078Z,23.55
2017-08-18T17:27:03.474Z,23.52
2017-08-18T17:29:30.867Z,23.48
2017-08-18T17:31:58.255Z,23.24
2017-08-18T17:34:25.666Z,23.22
2017-08-18T17:36:53.063Z,23.16
2017-08-18T17:39:20.467Z,23.20
2017-08-18T17:41:47.866Z,23.20
2017-08-18T17:44:15.254Z,23.07
2017-08-18T17:46:42.660Z,23.13
2017-08-18T17:49:10.051Z,23.19
2017-08-18T17:51:37.468Z,23.15
2017-08-18T17:54:04.861Z,22.95
2017-08-18T17:56:32.263Z,22.48
2017-08-18T17:58:59.655Z,22.38
2017-08-18T18:01:27.051Z,22.50
2017-08-18T18:03:54.671Z,22.64
2017-08-18T18:06:22.307Z,22.66
2017-08-18T18:08:49.700Z,22.69
2017-08-18T18:11:17.091Z,22.76
2017-08-18T18:13:44.474Z,22.85
2017-08-18T18:16:11.888Z,22.85
2017-08-18T18:18:39.276Z,22.49
2017-08-18T18:21:06.671Z,22.14
2017-08-18T18:23:34.272Z,21.55
2017-08-18T18:26:01.682Z,21.23
2017-08-18T18:28:29.051Z,20.93
2017-08-18T18:30:56.433Z,20.86
2017-08-18T18:33:23.835Z,20.72
2017-08-18T18:35:51.218Z,20.90
2017-08-18T18:38:18.611Z,20.99
2017-08-18T18:40:46.012Z,21.05
2017-08-18T18:43:13.408Z,21.08
2017-08-18T18:45:40.786Z,21.15
2017-08-18T18:48:08.187Z,21.14
2017-08-18T18:50:35.593Z,21.24
2017-08-18T18:53:02.990Z,21.28
2017-08-18T18:55:30.380Z,21.33
2017-08-18T18:57:57.780Z,21.43
2017-08-18T19:00:25.163Z,21.50
2017-08-18T19:02:52.558Z,21.59
2017-08-18T19:05:19.958Z,21.64
2017-08-18T19:07:47.360Z,21.65
2017-08-18T19:10:14.731Z,21.64
2017-08-18T19:12:42.139Z,21.75
2017-08-18T19:15:09.529Z,21.80
2017-08-18T19:17:36.962Z,21.58
2017-08-18T19:20:04.355Z,21.65
2017-08-18T19:22:31.767Z,21.55
2017-08-18T19:24:59.162Z,21.56
2017-08-18T19:27:26.554Z,21.61
2017-08-18T19:29:53.962Z,21.59
2017-08-18T19:32:21.363Z,21.57
2017-08-18T19:34:48.750Z,21.46
2017-08-18T19:37:16.140Z,21.56
2017-08-18T19:39:43.555Z,21.49
2017-08-18T19:42:10.943Z,21.51
2017-08-18T19:44:38.338Z,21.59
2017-08-18T19:47:05.718Z,21.65
2017-08-18T19:49:33.335Z,21.57
2017-08-18T19:52:00.726Z,21.53
2017-08-18T19:54:28.127Z,21.41
2017-08-18T19:56:55.520Z,21.38
2017-08-18T19:59:22.915Z,21.39
2017-08-18T20:01:50.311Z,21.43
2017-08-18T20:04:17.731Z,21.29
2017-08-18T20:06:45.139Z,21.27
2017-08-18T20:09:12.565Z,21.41
2017-08-18T20:11:40.169Z,21.39
2017-08-18T20:14:07.551Z,21.41
2017-08-18T20:16:34.953Z,21.30
2017-08-18T20:19:02.340Z,21.34
2017-08-18T20:21:29.735Z,21.34
2017-08-18T20:23:57.210Z,21.36
2017-08-18T20:26:24.609Z,21.32
2017-08-18T20:28:52.018Z,21.40
2017-08-18T20:31:19.423Z,21.37
2017-08-18T20:33:46.821Z,21.30
2017-08-18T20:36:14.222Z,21.20
2017-08-18T20:38:41.607Z,21.19
2017-08-18T20:41:09.007Z,20.97
2017-08-18T20:43:36.395Z,21.00
2017-08-18T20:46:03.808Z,20.92
2017-08-18T20:48:31.187Z,20.90
2017-08-18T20:50:58.619Z,20.88
2017-08-18T20:53:26.004Z,20.80
2017-08-18T20:55:53.395Z,20.82
2017-08-18T20:58:20.787Z,20.89
2017-08-18T21:00:48.202Z,20.95
2017-08-18T21:03:15.591Z,20.95
2017-08-18T21:05:42.990Z,20.80
2017-08-18T21:08:10.424Z,20.66
2017-08-18T21:10:37.818Z,20.54
2017-08-18T21:13:05.227Z,20.59
2017-08-18T21:15:32.618Z,20.56
2017-08-18T21:18:00.768Z,20.48
2017-08-18T21:20:28.162Z,20.49
2017-08-18T21:22:55.774Z,20.49
2017-08-18T21:25:23.390Z,20.48
2017-08-18T21:27:50.786Z,20.40
2017-08-18T21:30:18.175Z,20.36
2017-08-18T21:32:45.580Z,20.42
2017-08-18T21:35:12.967Z,20.46
2017-08-18T21:37:40.355Z,20.54
2017-08-18T21:40:07.966Z,20.57
2017-08-18T21:42:35.366Z,20.60
2017-08-18T21:45:02.759Z,20.72
2017-08-18T21:47:30.176Z,20.81
2017-08-18T21:49:57.569Z,20.79
2017-08-18T21:52:24.979Z,20.80
2017-08-18T21:54:52.411Z,20.84
2017-08-18T21:57:19.819Z,20.77
2017-08-18T21:59:47.217Z,20.78
2017-08-18T22:02:14.611Z,20.77
2017-08-18T22:04:41.999Z,20.85
2017-08-18T22:07:09.407Z,20.75
2017-08-18T22:09:36.806Z,20.84
2017-08-18T22:12:04.203Z,20.79
2017-08-18T22:14:31.604Z,20.66
2017-08-18T22:16:59.011Z,20.62
2017-08-18T22:19:26.426Z,20.60
2017-08-18T22:21:53.830Z,20.61
2017-08-18T22:24:21.245Z,20.58
2017-08-18T22:26:48.652Z,20.65
2017-08-18T22:29:16.047Z,20.71
2017-08-18T22:31:43.456Z,20.72
2017-08-18T22:34:10.856Z,20.71
2017-08-18T22:36:38.258Z,20.71
2017-08-18T22:39:05.667Z,20.70
2017-08-18T22:41:33.078Z,20.72
2017-08-18T22:44:01.034Z,20.52
2017-08-18T22:46:28.439Z,20.54
2017-08-18T22:48:55.830Z,20.21
2017-08-18T22:51:23.231Z,19.99
2017-08-18T22:53:50.633Z,19.77
2017-08-18T22:56:18.051Z,19.80
2017-08-18T22:58:45.447Z,19.73
2017-08-18T23:01:12.847Z,19.45
2017-08-18T23:03:40.282Z,19.37
2017-08-18T23:06:07.681Z,19.35
2017-08-18T23:08:35.087Z,19.31
2017-08-18T23:11:02.714Z,19.52
2017-08-18T23:13:30.112Z,19.64
2017-08-18T23:15:57.507Z,19.75
2017-08-18T23:18:24.913Z,19.89
2017-08-18T23:20:52.319Z,19.88
2017-08-18T23:23:19.708Z,20.01
2017-08-18T23:25:47.107Z,19.95
2017-08-18T23:28:14.494Z,19.94
2017-08-18T23:30:41.890Z,20.00
2017-08-18T23:33:09.291Z,20.05
2017-08-18T23:35:36.689Z,20.12
2017-08-18T23:38:04.298Z,20.21
2017-08-18T23:40:31.686Z,20.23
2017-08-18T23:42:59.095Z,20.25
2017-08-18T23:45:26.503Z,20.06
2017-08-18T23:47:53.895Z,19.82
2017-08-18T23:50:21.279Z,19.89
2017-08-18T23:52:48.679Z,19.88
2017-08-18T23:55:16.071Z,19.83
2017-08-18T23:57:43.470Z,19.91
